createdAt,value
2022-10-11T00:02:10.779Z,95754.03
2022-10-11T00:04:38.505Z,95744.66
2022-10-11T00:07:05.473Z,95750.19
2022-10-11T00:09:32.398Z,95745.03
2022-10-11T00:11:59.404Z,95759.97
2022-10-11T00:14:27.427Z,95759.03
2022-10-11T00:16:54.492Z,95751.97
2022-10-11T00:19:21.336Z,95751.50
2022-10-11T00:21:48.302Z,95749.75
2022-10-11T00:24:16.149Z,95745.97
2022-10-11T00:26:46.741Z,95750.56
2022-10-11T00:29:14.164Z,95745.56
2022-10-11T00:31:40.911Z,95741.13
2022-10-11T00:34:08.520Z,95752.81
2022-10-11T00:36:35.719Z,95744.25
2022-10-11T00:39:02.916Z,95731.59
2022-10-11T00:41:30.124Z,95742.94
2022-10-11T00:44:17.534Z,95744.16
2022-10-11T00:47:00.350Z,95738.13
2022-10-11T00:49:39.811Z,95732.56
2022-10-11T00:52:15.553Z,95729.50
2022-10-11T00:54:45.714Z,95722.44
2022-10-11T00:57:16.651Z,95729.63
2022-10-11T00:59:48.206Z,95732.97
2022-10-11T01:02:16.316Z,95732.59
2022-10-11T01:04:43.753Z,95735.34
2022-10-11T01:07:11.717Z,95733.19
2022-10-11T01:09:38.633Z,95734.75
2022-10-11T01:12:12.531Z,95726.00
2022-10-11T01:14:46.196Z,95736.03
2022-10-11T01:17:36.104Z,95735.03
2022-10-11T01:20:21.753Z,95716.41
2022-10-11T01:23:19.578Z,95732.03
2022-10-11T01:26:11.215Z,95724.97
2022-10-11T01:28:58.639Z,95724.84
2022-10-11T01:31:32.107Z,95726.00
2022-10-11T01:34:26.854Z,95723.00
2022-10-11T01:37:19.255Z,95716.81
2022-10-11T01:39:52.083Z,95717.59
2022-10-11T01:42:20.349Z,95700.75
2022-10-11T01:44:50.868Z,95706.63
2022-10-11T01:47:20.329Z,95714.53
2022-10-11T01:49:56.499Z,95710.44
2022-10-11T01:52:25.391Z,95717.22
2022-10-11T01:55:15.463Z,95713.34
2022-10-11T01:58:06.881Z,95717.97
2022-10-11T02:01:02.336Z,95721.75
2022-10-11T02:03:36.582Z,95719.63
2022-10-11T02:06:11.591Z,95709.78
2022-10-11T02:09:04.519Z,95722.47
2022-10-11T02:11:36.504Z,95716.03
2022-10-11T02:14:32.707Z,95721.84
2022-10-11T02:17:07.358Z,95720.22
2022-10-11T02:19:42.722Z,95710.25
2022-10-11T02:22:37.885Z,95710.19
2022-10-11T02:25:10.075Z,95710.03
2022-10-11T02:27:40.781Z,95723.72
2022-10-11T02:30:09.288Z,95710.97
2022-10-11T02:32:39.655Z,95708.69
2022-10-11T02:35:07.155Z,95709.50
2022-10-11T02:37:39.871Z,95698.66
2022-10-11T02:40:11.184Z,95707.78
2022-10-11T02:42:44.470Z,95705.28
2022-10-11T02:45:17.516Z,95704.69
2022-10-11T02:47:45.234Z,95711.19
2022-10-11T02:50:13.462Z,95684.19
2022-10-11T02:52:40.560Z,95692.72
2022-10-11T02:55:08.180Z,95694.94
2022-10-11T02:57:34.983Z,95678.59
2022-10-11T03:00:01.908Z,95694.34
2022-10-11T03:02:28.853Z,95694.66
2022-10-11T03:04:55.639Z,95684.31
2022-10-11T03:07:22.330Z,95678.31
2022-10-11T03:09:49.094Z,95687.53
2022-10-11T03:12:15.870Z,95681.66
2022-10-11T03:14:42.805Z,95683.69
2022-10-11T03:17:34.680Z,95684.75
2022-10-11T03:19:56.469Z,95675.84
2022-10-11T03:22:23.353Z,95629.16
2022-10-11T03:24:50.334Z,95680.28
2022-10-11T03:27:17.215Z,95685.09
2022-10-11T03:29:44.054Z,95678.59
2022-10-11T03:32:10.748Z,95676.06
2022-10-11T03:34:37.587Z,95680.84
2022-10-11T03:37:04.344Z,95677.50
2022-10-11T03:39:31.207Z,95678.22
2022-10-11T03:41:57.931Z,95671.16
2022-10-11T03:44:24.816Z,95668.31
2022-10-11T03:46:51.590Z,95672.31
2022-10-11T03:49:18.363Z,95676.06
2022-10-11T03:51:45.291Z,95679.59
2022-10-11T03:54:12.200Z,95673.41
2022-10-11T03:56:38.986Z,95660.94
2022-10-11T03:59:05.844Z,95660.81
2022-10-11T04:01:37.539Z,95663.16
2022-10-11T04:04:05.824Z,95658.63
2022-10-11T04:06:32.866Z,95664.72
2022-10-11T04:08:59.805Z,95663.69
2022-10-11T04:11:27.008Z,95663.50
2022-10-11T04:13:54.005Z,95651.75
2022-10-11T04:16:20.818Z,95667.59
2022-10-11T04:18:47.561Z,95671.16
2022-10-11T04:21:14.318Z,95674.19
2022-10-11T04:23:41.292Z,95674.00
2022-10-11T04:26:08.889Z,95675.06
2022-10-11T04:28:36.317Z,95671.53
2022-10-11T04:31:05.225Z,95672.53
2022-10-11T04:33:32.055Z,95668.00
2022-10-11T04:35:58.851Z,95674.53
2022-10-11T04:38:25.918Z,95675.47
2022-10-11T04:40:52.635Z,95673.91
2022-10-11T04:43:19.454Z,95676.06
2022-10-11T04:45:46.514Z,95658.13
2022-10-11T04:48:14.083Z,95669.44
2022-10-11T04:50:40.722Z,95670.75
2022-10-11T04:53:07.779Z,95672.91
2022-10-11T04:55:34.781Z,95674.41
2022-10-11T04:58:02.190Z,95676.34
2022-10-11T05:00:29.308Z,95659.13
2022-10-11T05:02:56.124Z,95670.78
2022-10-11T05:05:22.826Z,95670.56
2022-10-11T05:07:49.732Z,95662.69
2022-10-11T05:10:16.539Z,95664.13
2022-10-11T05:12:43.338Z,95677.78
2022-10-11T05:15:10.255Z,95678.72
2022-10-11T05:17:37.268Z,95678.50
2022-10-11T05:20:04.448Z,95671.03
2022-10-11T05:22:31.290Z,95682.28
2022-10-11T05:24:58.159Z,95681.22
2022-10-11T05:27:24.956Z,95669.91
2022-10-11T05:29:52.098Z,95685.03
2022-10-11T05:32:18.784Z,95688.38
2022-10-11T05:34:45.590Z,95685.69
2022-10-11T05:37:12.278Z,95691.53
2022-10-11T05:39:39.060Z,95697.84
2022-10-11T05:42:09.765Z,95687.38
2022-10-11T05:44:36.897Z,95694.84
2022-10-11T05:47:03.609Z,95694.72
2022-10-11T05:49:30.588Z,95701.03
2022-10-11T05:51:57.301Z,95695.56
2022-10-11T05:54:24.255Z,95699.38
2022-10-11T05:56:50.966Z,95701.69
2022-10-11T05:59:17.927Z,95703.03
2022-10-11T06:01:45.722Z,95696.78
2022-10-11T06:04:13.067Z,95700.88
2022-10-11T06:06:40.827Z,95700.59
2022-10-11T06:09:07.645Z,95687.38
2022-10-11T06:11:34.955Z,95692.97
2022-10-11T06:14:02.776Z,95684.00
2022-10-11T06:16:31.025Z,95659.84
2022-10-11T06:18:57.855Z,95667.88
2022-10-11T06:21:24.954Z,95678.03
2022-10-11T06:23:56.883Z,95668.44
2022-10-11T06:26:27.184Z,95668.53
2022-10-11T06:28:54.212Z,95680.66
2022-10-11T06:31:21.055Z,95681.66
2022-10-11T06:33:48.741Z,95692.56
2022-10-11T06:36:16.894Z,95694.34
2022-10-11T06:38:45.363Z,95681.88
2022-10-11T06:41:13.927Z,95688.19
2022-10-11T06:43:40.600Z,95694.38
2022-10-11T06:46:08.413Z,95688.34
2022-10-11T06:48:38.912Z,95691.81
2022-10-11T06:51:06.122Z,95685.56
2022-10-11T06:53:32.950Z,95703.91
2022-10-11T06:56:05.104Z,95708.84
2022-10-11T06:58:32.646Z,95719.81
2022-10-11T07:01:08.229Z,95713.16
2022-10-11T07:03:35.756Z,95711.09
2022-10-11T07:06:11.240Z,95717.03
2022-10-11T07:08:38.762Z,95709.25
2022-10-11T07:11:12.004Z,95700.00
2022-10-11T07:13:39.980Z,95709.53
2022-10-11T07:16:09.901Z,95698.84
2022-10-11T07:18:40.128Z,95690.94
2022-10-11T07:21:10.613Z,95701.34
2022-10-11T07:23:37.938Z,95705.88
2022-10-11T07:26:07.067Z,95700.59
2022-10-11T07:28:35.803Z,95707.00
2022-10-11T07:31:07.056Z,95704.91
2022-10-11T07:33:33.943Z,95698.84
2022-10-11T07:36:01.099Z,95703.44
2022-10-11T07:38:28.070Z,95708.91
2022-10-11T07:40:55.016Z,95694.63
2022-10-11T07:43:21.808Z,95702.56
2022-10-11T07:45:53.701Z,95718.72
2022-10-11T07:48:20.717Z,95697.63
2022-10-11T07:50:47.673Z,95706.91
2022-10-11T07:53:14.727Z,95700.53
2022-10-11T07:55:42.338Z,95708.91
2022-10-11T07:58:13.184Z,95707.47
2022-10-11T08:00:42.870Z,95700.22
2022-10-11T08:03:10.497Z,95703.97
2022-10-11T08:05:39.146Z,95696.22
2022-10-11T08:08:05.903Z,95687.34
2022-10-11T08:10:38.492Z,95699.97
2022-10-11T08:13:05.697Z,95703.41
2022-10-11T08:15:32.531Z,95703.78
2022-10-11T08:17:59.736Z,95720.75
2022-10-11T08:20:26.415Z,95713.16
2022-10-11T08:22:55.264Z,95709.31
2022-10-11T08:25:21.956Z,95721.53
2022-10-11T08:27:48.657Z,95720.75
2022-10-11T08:30:15.714Z,95715.81
2022-10-11T08:32:42.596Z,95724.97
2022-10-11T08:35:09.331Z,95729.25
2022-10-11T08:37:36.286Z,95709.28
2022-10-11T08:40:03.418Z,95715.25
2022-10-11T08:42:36.466Z,95711.47
2022-10-11T08:45:11.757Z,95702.00
2022-10-11T08:47:44.929Z,95707.28
2022-10-11T08:50:19.884Z,95707.78
2022-10-11T08:53:02.580Z,95713.66
2022-10-11T08:55:34.883Z,95717.72
2022-10-11T08:58:02.287Z,95709.84
2022-10-11T09:00:32.943Z,95713.41
2022-10-11T09:03:10.464Z,95719.75
2022-10-11T09:06:03.689Z,95701.50
2022-10-11T09:08:56.604Z,95698.06
2022-10-11T09:11:57.420Z,95702.41
2022-10-11T09:14:46.781Z,95692.97
2022-10-11T09:17:55.309Z,95693.09
2022-10-11T09:20:40.648Z,95689.44
2022-10-11T09:23:13.599Z,95688.81
2022-10-11T09:26:25.833Z,95699.41
2022-10-11T09:29:12.536Z,95673.81
2022-10-11T09:31:39.554Z,95693.56
2022-10-11T09:34:11.813Z,95687.44
2022-10-11T09:36:51.621Z,95702.06
2022-10-11T09:39:32.098Z,95697.31
2022-10-11T09:42:11.543Z,95704.56
2022-10-11T09:44:49.715Z,95691.97
2022-10-11T09:47:23.824Z,95689.09
2022-10-11T09:49:59.315Z,95685.78
2022-10-11T09:55:33.855Z,95679.22
2022-10-11T09:58:00.865Z,95685.22
2022-10-11T10:00:32.313Z,95673.97
2022-10-11T10:03:02.347Z,95680.22
2022-10-11T10:05:36.774Z,95668.94
2022-10-11T10:08:24.757Z,95675.28
2022-10-11T10:11:04.007Z,95659.97
2022-10-11T10:13:43.390Z,95661.25
2022-10-11T10:16:27.308Z,95667.22
2022-10-11T10:19:02.310Z,95655.25
2022-10-11T10:21:34.234Z,95660.47
2022-10-11T10:24:17.271Z,95662.38
2022-10-11T10:27:18.046Z,95659.72
2022-10-11T10:30:04.824Z,95651.47
2022-10-11T10:33:04.532Z,95653.69
2022-10-11T10:36:17.747Z,95648.91
2022-10-11T10:38:59.643Z,95650.63
2022-10-11T10:41:26.776Z,95640.09
2022-10-11T10:43:57.731Z,95648.75
2022-10-11T10:46:55.442Z,95643.56
2022-10-11T10:49:53.779Z,95642.09
2022-10-11T10:52:55.148Z,95640.75
2022-10-11T10:55:37.668Z,95637.06
2022-10-11T10:58:23.522Z,95631.63
2022-10-11T11:00:55.725Z,95618.75
2022-10-11T11:03:33.208Z,95621.78
2022-10-11T11:06:05.623Z,95611.59
2022-10-11T11:09:09.730Z,95604.66
2022-10-11T11:12:14.936Z,95618.97
2022-10-11T11:14:53.449Z,95611.19
2022-10-11T11:17:34.885Z,95615.13
2022-10-11T11:20:04.387Z,95614.63
2022-10-11T11:22:36.446Z,95613.13
2022-10-11T11:25:24.156Z,95601.88
2022-10-11T11:27:53.738Z,95597.47
2022-10-11T11:30:54.523Z,95601.75
2022-10-11T11:34:18.229Z,95598.91
2022-10-11T11:36:49.498Z,95602.47
2022-10-11T11:39:23.747Z,95604.88
2022-10-11T11:42:00.815Z,95598.69
2022-10-11T11:44:37.920Z,95596.22
2022-10-11T11:47:30.139Z,95578.91
2022-10-11T11:50:23.761Z,95578.78
2022-10-11T11:53:05.090Z,95584.50
2022-10-11T11:55:45.795Z,95584.97
2022-10-11T11:58:50.488Z,95589.03
2022-10-11T12:01:40.080Z,95587.75
2022-10-11T12:04:38.074Z,95584.63
2022-10-11T12:07:16.251Z,95585.28
2022-10-11T12:09:51.587Z,95574.56
2022-10-11T12:12:33.856Z,95578.34
2022-10-11T12:15:09.971Z,95577.97
2022-10-11T12:17:55.846Z,95577.94
2022-10-11T12:20:34.612Z,95579.44
2022-10-11T12:23:04.145Z,95585.50
2022-10-11T12:25:40.695Z,95578.41
2022-10-11T12:28:39.349Z,95576.75
2022-10-11T12:31:23.781Z,95579.41
2022-10-11T12:34:02.852Z,95581.44
2022-10-11T12:36:35.763Z,95573.47
2022-10-11T12:39:20.959Z,95575.16
2022-10-11T12:41:48.076Z,95567.59
2022-10-11T12:44:31.142Z,95567.91
2022-10-11T12:47:14.091Z,95568.69
2022-10-11T12:50:03.799Z,95563.25
2022-10-11T12:52:49.975Z,95569.19
2022-10-11T12:55:38.615Z,95561.91
2022-10-11T12:58:17.913Z,95551.22
2022-10-11T13:00:50.955Z,95545.84
2022-10-11T13:03:42.231Z,95556.91
2022-10-11T13:06:32.015Z,95556.28
2022-10-11T13:09:11.027Z,95552.78
2022-10-11T13:11:49.511Z,95553.81
2022-10-11T13:14:23.137Z,95556.13
2022-10-11T13:17:06.957Z,95556.41
2022-10-11T13:22:29.209Z,95566.88
2022-10-11T13:24:58.179Z,95556.94
2022-10-11T13:27:27.445Z,95555.66
2022-10-11T13:29:59.378Z,95567.97
2022-10-11T13:32:31.089Z,95560.09
2022-10-11T13:35:02.401Z,95558.84
2022-10-11T13:37:30.644Z,95556.91
2022-10-11T13:39:58.417Z,95561.34
2022-10-11T13:42:31.474Z,95559.75
2022-10-11T13:44:59.896Z,95561.34
2022-10-11T13:47:29.568Z,95563.06
2022-10-11T13:50:14.863Z,95564.19
2022-10-11T13:52:50.213Z,95569.88
2022-10-11T13:55:35.385Z,95563.25
2022-10-11T13:58:11.978Z,95564.03
2022-10-11T14:00:56.162Z,95559.31
2022-10-11T14:03:25.983Z,95559.75
2022-10-11T14:05:56.245Z,95554.91
2022-10-11T14:08:35.675Z,95550.81
2022-10-11T14:11:06.457Z,95564.03
2022-10-11T14:13:33.791Z,95565.75
2022-10-11T14:16:08.332Z,95552.84
2022-10-11T14:18:47.407Z,95551.63
2022-10-11T14:21:35.917Z,95550.34
2022-10-11T14:24:08.143Z,95553.94
2022-10-11T14:26:50.675Z,95559.50
2022-10-11T14:29:29.408Z,95553.47
2022-10-11T14:32:04.042Z,95558.06
2022-10-11T14:34:31.787Z,95552.56
2022-10-11T14:36:58.609Z,95544.72
2022-10-11T14:39:28.272Z,95542.34
2022-10-11T14:41:55.083Z,95545.78
2022-10-11T14:44:22.714Z,95551.13
2022-10-11T14:46:54.351Z,95552.84
2022-10-11T14:49:27.617Z,95550.66
2022-10-11T14:51:57.493Z,95553.41
2022-10-11T14:54:25.774Z,95559.56
2022-10-11T14:56:54.809Z,95555.47
2022-10-11T14:59:25.339Z,95559.88
2022-10-11T15:01:54.050Z,95554.97
2022-10-11T15:04:21.634Z,95572.28
2022-10-11T15:06:49.231Z,95565.25
2022-10-11T15:09:17.298Z,95568.31
2022-10-11T15:11:44.172Z,95564.91
2022-10-11T15:14:10.931Z,95567.69
2022-10-11T15:16:40.027Z,95563.25
2022-10-11T15:19:10.874Z,95565.31
2022-10-11T15:21:37.767Z,95564.38
2022-10-11T15:24:04.600Z,95559.09
2022-10-11T15:26:31.686Z,95571.75
2022-10-11T15:28:58.533Z,95563.16
2022-10-11T15:31:26.601Z,95567.09
2022-10-11T15:33:59.526Z,95561.50
2022-10-11T15:36:26.541Z,95562.81
2022-10-11T15:38:53.327Z,95567.69
2022-10-11T15:41:21.157Z,95565.44
2022-10-11T15:43:49.504Z,95570.28
2022-10-11T15:46:20.076Z,95565.34
2022-10-11T15:48:47.140Z,95568.72
2022-10-11T15:51:14.373Z,95563.78
2022-10-11T15:53:41.152Z,95557.16
2022-10-11T15:56:12.492Z,95566.31
2022-10-11T15:58:41.647Z,95573.97
2022-10-11T16:01:20.051Z,95582.34
2022-10-11T16:03:49.179Z,95579.78
2022-10-11T16:06:17.429Z,95581.75
2022-10-11T16:08:44.667Z,95592.41
2022-10-11T16:11:12.610Z,95585.47
2022-10-11T16:13:39.750Z,95579.09
2022-10-11T16:16:10.214Z,95584.75
2022-10-11T16:18:37.856Z,95593.72
2022-10-11T16:21:10.127Z,95580.78
2022-10-11T16:23:40.182Z,95586.75
2022-10-11T16:26:10.105Z,95587.69
2022-10-11T16:28:37.808Z,95596.75
2022-10-11T16:31:14.597Z,95601.09
2022-10-11T16:33:47.830Z,95596.78
2022-10-11T16:36:35.778Z,95599.16
2022-10-11T16:39:11.908Z,95608.63
2022-10-11T16:41:39.688Z,95589.06
2022-10-11T16:44:07.270Z,95604.94
2022-10-11T16:46:34.368Z,95609.84
2022-10-11T16:49:01.167Z,95595.09
2022-10-11T16:51:28.034Z,95598.22
2022-10-11T16:53:54.712Z,95600.75
2022-10-11T16:56:22.776Z,95589.59
2022-10-11T16:58:50.525Z,95604.81
2022-10-11T17:01:17.652Z,95591.50
2022-10-11T17:03:46.703Z,95605.19
2022-10-11T17:06:13.674Z,95601.28
2022-10-11T17:08:40.447Z,95596.75
2022-10-11T17:11:07.385Z,95603.94
2022-10-11T17:13:34.141Z,95610.63
2022-10-11T17:16:01.048Z,95603.66
2022-10-11T17:18:28.143Z,95607.75
2022-10-11T17:21:07.167Z,95613.09
2022-10-11T17:23:35.862Z,95609.94
2022-10-11T17:26:10.067Z,95611.63
2022-10-11T17:28:38.878Z,95615.44
2022-10-11T17:31:08.432Z,95609.09
2022-10-11T17:33:36.186Z,95602.69
2022-10-11T17:36:14.538Z,95617.50
2022-10-11T17:38:41.437Z,95612.22
2022-10-11T17:41:08.978Z,95616.69
2022-10-11T17:43:36.293Z,95613.50
2022-10-11T17:46:05.979Z,95615.91
2022-10-11T17:48:39.141Z,95618.91
2022-10-11T17:51:11.589Z,95614.66
2022-10-11T17:53:39.278Z,95615.63
2022-10-11T17:56:18.137Z,95622.13
2022-10-11T17:58:47.075Z,95614.19
2022-10-11T18:01:19.227Z,95622.84
2022-10-11T18:03:57.754Z,95628.97
2022-10-11T18:06:30.942Z,95623.28
2022-10-11T18:09:01.229Z,95617.25
2022-10-11T18:11:28.191Z,95627.25
2022-10-11T18:13:55.035Z,95628.25
2022-10-11T18:16:24.510Z,95628.41
2022-10-11T18:18:51.547Z,95629.50
2022-10-11T18:21:22.379Z,95621.47
2022-10-11T18:23:50.461Z,95620.50
2022-10-11T18:26:19.896Z,95624.75
2022-10-11T18:28:48.786Z,95627.41
2022-10-11T18:31:19.872Z,95626.44
2022-10-11T18:33:48.204Z,95626.09
2022-10-11T18:36:17.929Z,95628.63
2022-10-11T18:38:49.071Z,95626.88
2022-10-11T18:41:18.110Z,95636.13
2022-10-11T18:43:50.276Z,95636.50
2022-10-11T18:46:17.627Z,95634.56
2022-10-11T18:48:46.703Z,95636.22
2022-10-11T18:51:25.060Z,95628.28
2022-10-11T18:53:52.900Z,95631.66
2022-10-11T18:56:21.733Z,95632.63
2022-10-11T18:58:50.333Z,95632.63
2022-10-11T19:01:24.287Z,95640.84
2022-10-11T19:03:53.992Z,95641.91
2022-10-11T19:06:23.362Z,95639.13
2022-10-11T19:09:02.097Z,95636.59
2022-10-11T19:11:29.304Z,95649.13
2022-10-11T19:14:01.249Z,95636.47
2022-10-11T19:16:29.884Z,95636.19
2022-10-11T19:18:57.168Z,95649.63
2022-10-11T19:21:24.424Z,95641.00
2022-10-11T19:23:51.211Z,95646.22
2022-10-11T19:26:30.036Z,95650.13
2022-10-11T19:29:02.755Z,95653.47
2022-10-11T19:31:31.317Z,95650.72
2022-10-11T19:33:58.384Z,95649.16
2022-10-11T19:36:26.302Z,95645.53
2022-10-11T19:38:56.944Z,95649.84
2022-10-11T19:41:25.576Z,95647.06
2022-10-11T19:43:52.699Z,95646.88
2022-10-11T19:46:38.376Z,95654.56
2022-10-11T19:49:09.298Z,95657.66
2022-10-11T19:51:37.634Z,95652.84
2022-10-11T19:54:08.070Z,95650.84
2022-10-11T19:56:35.404Z,95653.19
2022-10-11T19:59:03.599Z,95655.13
2022-10-11T20:01:31.317Z,95665.34
2022-10-11T20:04:02.342Z,95651.69
2022-10-11T20:06:32.478Z,95659.59
2022-10-11T20:09:27.401Z,95650.84
2022-10-11T20:11:48.412Z,95655.84
2022-10-11T20:14:15.227Z,95661.75
2022-10-11T20:16:42.384Z,95666.69
2022-10-11T20:19:09.203Z,95661.50
2022-10-11T20:21:36.022Z,95665.84
2022-10-11T20:24:03.998Z,95662.25
2022-10-11T20:26:30.963Z,95664.63
2022-10-11T20:28:58.238Z,95650.31
2022-10-11T20:31:28.412Z,95662.19
2022-10-11T20:34:06.192Z,95656.44
2022-10-11T20:36:34.496Z,95657.72
2022-10-11T20:39:01.596Z,95656.56
2022-10-11T20:41:32.869Z,95648.16
2022-10-11T20:44:01.369Z,95639.09
2022-10-11T20:46:31.438Z,95660.47
2022-10-11T20:49:03.165Z,95660.81
2022-10-11T20:51:31.948Z,95664.22
2022-10-11T20:53:59.654Z,95655.81
2022-10-11T20:56:26.920Z,95659.78
2022-10-11T20:58:55.233Z,95666.03
2022-10-11T21:01:34.483Z,95657.53
2022-10-11T21:04:01.959Z,95673.78
2022-10-11T21:06:30.085Z,95670.06
2022-10-11T21:08:57.249Z,95665.75
2022-10-11T21:11:33.515Z,95658.94
2022-10-11T21:14:03.334Z,95668.19
2022-10-11T21:16:30.874Z,95666.28
2022-10-11T21:18:59.423Z,95667.00
2022-10-11T21:21:27.914Z,95663.56
2022-10-11T21:23:59.874Z,95666.09
2022-10-11T21:26:28.664Z,95659.03
2022-10-11T21:28:55.455Z,95641.69
2022-10-11T21:31:23.213Z,95658.03
2022-10-11T21:33:50.547Z,95651.53
2022-10-11T21:36:20.830Z,95629.69
2022-10-11T21:38:48.429Z,95652.13
2022-10-11T21:41:20.834Z,95648.38
2022-10-11T21:43:48.379Z,95640.28
2022-10-11T21:46:18.681Z,95652.53
2022-10-11T21:48:46.344Z,95651.72
2022-10-11T21:51:15.725Z,95657.84
2022-10-11T21:53:42.688Z,95654.50
2022-10-11T21:56:09.484Z,95647.78
2022-10-11T21:58:36.288Z,95655.06
2022-10-11T22:01:03.530Z,95656.06
2022-10-11T22:03:30.396Z,95649.75
2022-10-11T22:05:57.243Z,95645.97
2022-10-11T22:08:24.136Z,95637.88
2022-10-11T22:10:56.366Z,95641.75
2022-10-11T22:13:24.127Z,95643.06
2022-10-11T22:15:51.136Z,95646.69
2022-10-11T22:18:18.167Z,95644.22
2022-10-11T22:20:45.328Z,95645.22
2022-10-11T22:23:12.128Z,95641.81
2022-10-11T22:25:39.870Z,95644.06
2022-10-11T22:28:07.209Z,95643.47
2022-10-11T22:30:34.814Z,95637.16
2022-10-11T22:33:01.660Z,95647.16
2022-10-11T22:35:29.147Z,95641.56
2022-10-11T22:37:58.276Z,95640.81
2022-10-11T22:40:27.368Z,95657.25
2022-10-11T22:42:54.060Z,95642.38
2022-10-11T22:45:20.966Z,95650.94
2022-10-11T22:47:47.758Z,95663.84
2022-10-11T22:50:14.623Z,95655.19
2022-10-11T22:52:41.429Z,95656.63
2022-10-11T22:55:08.848Z,95656.06
2022-10-11T22:57:35.872Z,95666.59
2022-10-11T23:00:02.797Z,95656.06
2022-10-11T23:02:29.640Z,95667.69
2022-10-11T23:04:56.768Z,95664.81
2022-10-11T23:07:23.509Z,95667.31
2022-10-11T23:09:50.416Z,95666.31
2022-10-11T23:12:17.156Z,95670.94
2022-10-11T23:14:43.904Z,95670.06
2022-10-11T23:17:10.761Z,95675.38
2022-10-11T23:19:37.510Z,95664.84
2022-10-11T23:22:04.477Z,95673.91
2022-10-11T23:24:31.261Z,95667.59
2022-10-11T23:26:58.210Z,95666.13
2022-10-11T23:29:25.976Z,95670.84
2022-10-11T23:31:52.795Z,95662.59
2022-10-11T23:34:19.445Z,95663.34
2022-10-11T23:36:46.297Z,95665.81
2022-10-11T23:39:13.233Z,95672.19
2022-10-11T23:41:39.988Z,95673.06
2022-10-11T23:44:06.707Z,95663.88
2022-10-11T23:46:33.608Z,95668.06
2022-10-11T23:49:00.331Z,95658.91
2022-10-11T23:51:27.485Z,95670.06
2022-10-11T23:53:54.632Z,95659.59
2022-10-11T23:56:21.995Z,95663.88
2022-10-11T23:58:48.812Z,95667.16
